x

South Moresby (46147) Wave Buoy

6:00am - Mon 30th Mar 2015 All times are PDT. -7 hours from GMT.

  • Sig Wave height 11.8ft
  • Peak Period 8s
  • Wind
    31mph, 40mph gusts
  • Sea Temp 49°f
  • Air Temp 51°f
  • Sea Pressure 996.1mb
  • South Moresby
  • South Moresby

More Historic Weather Station data

Upgrade to MSW Pro to gain access to the past 30 days of data for over 8000 Wavebouys and Weather Stations around the globe.

Join Pro

Comparision Forecast

View Surf forecast
   
Mon 03/30 6:00am 12ft 8s 31 40 mph 996.1mb 49f 51f
5:00am 11ft 7s 25 34 mph 997.6mb 49f 52f
4:00am 11ft 13s 22 27 mph 999.3mb 49f 49f
3:00am 11ft 13s 34 43 mph 1002mb 49f 47f
2:00am 10ft 12s 29 36 mph 1005.2mb 49f 47f
1:00am 10ft 12s 25 31 mph 1008mb 49f 48f
12:00am 10.5ft 12s 22 27 mph 1009.8mb 49f 49f
Sun 03/29 11:00pm 10ft 12s 22 29 mph 1011mb 49f 49f
10:00pm 11.5ft 14s 13 18 mph 1012.6mb 49f 50f
9:00pm 11.5ft 12s 13 20 mph 1013.6mb 49f 49f
8:00pm 11.5ft 12s 13 18 mph 1014.4mb 49f 49f
7:00pm 11ft 12s 11 13 mph 1015.3mb 49f 50f
6:00pm 11ft 12s 9 11 mph 1016mb 49f 50f
5:00pm 11ft 14s 11 13 mph 1016.8mb 49f 50f
4:00pm 11ft 14s 11 13 mph 1016.9mb 49f 50f
3:00pm 11ft 11s 11 16 mph 1017mb 49f 50f
2:00pm 12ft 14s 9 13 mph 1016.9mb 49f 50f
1:00pm 11.5ft 12s 13 18 mph 1016.5mb 49f 50f
12:00pm 10.5ft 11s 13 18 mph 1016mb 49f 50f
11:00am 12ft 11s 16 18 mph 1015.2mb 49f 50f
10:00am 12ft 11s 18 22 mph 1014.4mb 49f 50f
9:00am 11ft 10s 16 20 mph 1013.6mb 49f 49f
8:00am 10.5ft 11s 18 22 mph 1012.6mb 49f 49f
7:00am 10.5ft 10s 20 27 mph 1011.6mb 49f 50f
6:00am 11ft 11s 22 27 mph 1011.1mb 49f 49f
5:00am 10ft 11s 20 27 mph 1010.4mb 49f 48f
4:00am 11ft 10s 20 22 mph 1010.2mb 49f 50f
3:00am 10ft 11s 16 20 mph 1010.1mb 49f 49f
2:00am 10.5ft 11s 16 20 mph 1010.1mb 49f 49f
1:00am 10ft 11s 16 18 mph 1010mb 49f 48f
12:00am 11ft 11s 18 22 mph 1009.9mb 49f 48f
Sat 03/28 11:00pm 11ft 9s 13 16 mph 1010.1mb 49f 50f
10:00pm 11ft 11s 13 18 mph 1010.2mb 49f 50f
9:00pm 11ft 12s 18 22 mph 1010.1mb 49f 50f
8:00pm 11ft 10s 16 20 mph 1009.8mb 49f 50f
7:00pm 11ft 8s 16 18 mph 1009.3mb 49f 51f
6:00pm 11ft 9s 18 22 mph 1008.4mb 49f 50f
5:00pm 11ft 8s 20 25 mph 1007.8mb 49f 51f
4:00pm 10.5ft 8s 18 22 mph 1007.4mb 49f 51f
3:00pm 11ft 8s 22 27 mph 1006.8mb 49f 51f
2:00pm 11ft 7s 25 29 mph 1006.2mb 49f 51f
1:00pm  -   -  29
mph
- - -
12:00pm 9ft 6s  -  mph - 49f -
11:00am 8.5ft 6s 29 36 mph 1007.3mb 49f 50f
10:00am 8ft 6s 31 40 mph 1007.7mb 49f 50f
9:00am 7ft 10s 31 40 mph 1008.4mb 49f 48f
8:00am 6.5ft 8s 29 36 mph 1009.2mb 49f 48f
7:00am 6.5ft 11s 27 31 mph 1010.3mb 49f 49f
6:00am 6.5ft 10s 22 27 mph 1011.1mb 49f 49f
5:00am 6.5ft 11s 20 22 mph 1012mb 49f 49f
4:00am 7ft 11s 18 20 mph 1012.6mb 49f 49f
3:00am 6ft 10s 13 18 mph 1013.1mb 49f 49f
2:00am 7.5ft 11s 11 13 mph 1013.4mb 49f 48f
1:00am 7ft 11s 13 16 mph 1013.6mb 49f 49f
12:00am 8ft 11s 7 9 mph 1013.7mb 49f 49f
Fri 03/27 11:00pm 7.5ft 11s 9 11 mph 1013.6mb 49f 49f
10:00pm 8ft 11s 11 13 mph 1013.2mb 49f 49f
9:00pm 8ft 10s 13 16 mph 1012.5mb 49f 49f
8:00pm 8ft 11s 11 13 mph 1012mb 49f 49f
7:00pm 9ft 11s 13 18 mph 1011.9mb 49f 49f
6:00pm 9.5ft 12s 11 16 mph 1011.8mb 50f 49f
5:00pm 9ft 11s 11 13 mph 1011.7mb 50f 50f
4:00pm 10ft 11s 11 13 mph 1012.1mb 50f 49f
3:00pm 9.5ft 11s 9 11 mph 1012.4mb 49f 49f
2:00pm 11ft 11s 4 7 mph 1012.5mb 49f 49f
1:00pm 10.5ft 12s 4 7 mph 1012.6mb 49f 49f
12:00pm 10.5ft 12s 4 7 mph 1012.5mb 49f 49f
11:00am 10ft 11s 4
mph
1012.7mb 49f 48f
10:00am 10.5ft 12s 4 7 mph 1012.8mb 49f 49f
9:00am 11ft 12s 4 7 mph 1013.2mb 49f 48f
8:00am 10.5ft 13s 2 4 mph 1013.2mb 49f 48f
7:00am 11ft 13s 4 7 mph 1013.5mb 49f 48f
6:00am 10.5ft 12s 2 4 mph 1013.8mb 49f 48f
5:00am 11ft 12s 2 4 mph 1014.4mb 49f 47f
4:00am 10ft 14s 2 4 mph 1015mb 49f 47f
3:00am 10ft 12s  -  2 mph 1015.7mb 49f 47f
2:00am 10.5ft 11s 2 4 mph 1015.7mb 49f 47f
1:00am 10.5ft 11s 2 7 mph 1015.8mb 49f 47f
12:00am 10ft 11s 2 4 mph 1015.9mb 49f 47f
Thu 03/26 11:00pm 10ft 12s 2 4 mph 1015.8mb 49f 47f
10:00pm 10ft 12s 4 9 mph 1015.7mb 49f 47f
9:00pm 10.5ft 12s 7 9 mph 1015.9mb 49f 47f
8:00pm 10ft 12s 9 11 mph 1015.5mb 49f 47f
7:00pm 9ft 11s 9 11 mph 1015.9mb 49f 47f
6:00pm 9ft 12s 13 18 mph 1015.7mb 49f 48f
5:00pm 9ft 12s 16 20 mph 1015.7mb 49f 49f
4:00pm 10ft 12s 9 11 mph 1016.1mb 49f 49f
3:00pm 9ft 12s 7 9 mph 1016.6mb 49f 50f